YPPH/PER METAR and TAF weather

Enter ICAO airport designator
Station Type Date Time Source
YPPH METAR 2019/10/23 20:30 UTC NOAA

YPPH 232030Z 17007KT 9999 FEW028 SCT042 12/10 Q1018 NOSIG


Station Type Date Time Source
YPPH Decoded METAR 2019/10/23 20:30 UTC NOAA

Belmont Perth Airport , Australia (YPPH) 31-56S 115-57E 29M
Oct 23, 2019 - 04:30 PM EDT / 2019.10.23 2030 UTC
Wind: from the S (170 degrees) at 8 MPH (7 KT):0
Visibility: greater than 7 mile(s):0
Sky conditions: partly cloudy
Temperature: 53 F (12 C)
Dew Point: 50 F (10 C)
Relative Humidity: 87%
Pressure (altimeter): 30.06 in. Hg (1018 hPa)
ob: YPPH 232030Z 17007KT 9999 FEW028 SCT042 12/10 Q1018 NOSIG
cycle: 20

Station Type Date Time Source
YPPH TAF 2019/10/23 18:39 UTC NOAA

TAF TAF YPPH 231738Z 2318/2424 18008KT 9999 SCT040
FM240000 19008KT CAVOK
BECMG 2404/2406 23014KT CAVOK
FM241200 18005KT CAVOK
FM241600 15005KT 9999 FEW025

Example: see airport list